createdAt,value
2018-07-08T00:00:24.793Z,1015.26
2018-07-08T00:01:24.783Z,1015.31
2018-07-08T00:02:24.769Z,1015.28
2018-07-08T00:03:24.756Z,1015.26
2018-07-08T00:04:24.751Z,1015.25
2018-07-08T00:05:24.731Z,1015.26
2018-07-08T00:06:24.721Z,1015.25
2018-07-08T00:07:24.706Z,1015.22
2018-07-08T00:08:24.693Z,1015.25
2018-07-08T00:09:24.686Z,1015.23
2018-07-08T00:10:24.669Z,1015.25
2018-07-08T00:11:24.656Z,1015.28
2018-07-08T00:12:24.644Z,1015.3
2018-07-08T00:13:24.630Z,1015.27
2018-07-08T00:14:24.620Z,1015.25
2018-07-08T00:15:24.606Z,1015.24
2018-07-08T00:16:24.595Z,1015.24
2018-07-08T00:17:24.580Z,1015.19
2018-07-08T00:18:24.568Z,1015.21
2018-07-08T00:19:24.562Z,1015.22
2018-07-08T00:20:24.543Z,1015.19
2018-07-08T00:21:24.531Z,1015.17
2018-07-08T00:22:24.526Z,1015.14
2018-07-08T00:23:24.508Z,1015.18
2018-07-08T00:24:24.495Z,1015.16
2018-07-08T00:25:24.480Z,1015.12
2018-07-08T00:26:24.469Z,1015.13
2018-07-08T00:27:24.466Z,1015.13
2018-07-08T00:28:24.444Z,1015.12
2018-07-08T00:29:24.433Z,1015.08
2018-07-08T00:30:24.418Z,1015.08
2018-07-08T00:31:24.410Z,1015.09
2018-07-08T00:32:24.392Z,1015.06
2018-07-08T00:33:24.379Z,1015.06
2018-07-08T00:34:24.367Z,1015.05
2018-07-08T00:35:24.354Z,1015.13
2018-07-08T00:36:24.339Z,1015.11
2018-07-08T00:37:24.329Z,1015.1
2018-07-08T00:38:24.315Z,1015.12
2018-07-08T00:39:24.306Z,1015.14
2018-07-08T00:40:24.292Z,1015.15
2018-07-08T00:41:24.278Z,1015.1
2018-07-08T00:42:24.266Z,1015.11
2018-07-08T00:43:24.255Z,1015.11
2018-07-08T00:44:24.241Z,1015.12
2018-07-08T00:45:24.228Z,1015.15
2018-07-08T00:46:24.216Z,1015.19
2018-07-08T00:47:24.204Z,1015.16
2018-07-08T00:48:24.191Z,1015.19
2018-07-08T00:49:24.176Z,1015.2
2018-07-08T00:50:24.166Z,1015.16
2018-07-08T00:51:24.152Z,1015.16
2018-07-08T00:52:24.140Z,1015.17
2018-07-08T00:53:24.126Z,1015.18
2018-07-08T00:54:24.113Z,1015.17
2018-07-08T00:55:24.099Z,1015.25
2018-07-08T00:56:24.090Z,1015.25
2018-07-08T00:57:24.077Z,1015.27
2018-07-08T00:58:24.064Z,1015.24
2018-07-08T00:59:24.049Z,1015.25
2018-07-08T01:00:24.036Z,1015.28
2018-07-08T01:01:24.023Z,1015.3
2018-07-08T01:02:24.009Z,1015.28
2018-07-08T01:03:23.996Z,1015.28
2018-07-08T01:04:23.982Z,1015.3
2018-07-08T01:05:23.971Z,1015.28
2018-07-08T01:06:23.957Z,1015.3
2018-07-08T01:07:23.949Z,1015.28
2018-07-08T01:08:23.933Z,1015.29
2018-07-08T01:09:23.919Z,1015.27
2018-07-08T01:10:23.908Z,1015.25
2018-07-08T01:11:23.902Z,1015.26
2018-07-08T01:12:23.881Z,1015.27
2018-07-08T01:13:23.866Z,1015.29
2018-07-08T01:14:23.855Z,1015.3
2018-07-08T01:15:23.842Z,1015.32
2018-07-08T01:16:23.828Z,1015.31
2018-07-08T01:17:23.815Z,1015.31
2018-07-08T01:18:23.802Z,1015.29
2018-07-08T01:19:23.788Z,1015.32
2018-07-08T01:20:23.776Z,1015.29
2018-07-08T01:21:23.763Z,1015.31
2018-07-08T01:22:23.750Z,1015.33
2018-07-08T01:23:23.736Z,1015.31
2018-07-08T01:24:23.721Z,1015.34
2018-07-08T01:25:23.710Z,1015.37
2018-07-08T01:26:23.745Z,1015.41
2018-07-08T01:27:23.685Z,1015.41
2018-07-08T01:28:23.671Z,1015.44
2018-07-08T01:29:23.661Z,1015.5
2018-07-08T01:30:23.642Z,1015.5
2018-07-08T01:31:23.629Z,1015.48
2018-07-08T01:32:23.616Z,1015.53
2018-07-08T01:33:23.604Z,1015.49
2018-07-08T01:34:23.590Z,1015.49
2018-07-08T01:35:23.576Z,1015.5
2018-07-08T01:36:23.567Z,1015.5
2018-07-08T01:37:23.550Z,1015.48
2018-07-08T01:38:23.535Z,1015.5
2018-07-08T01:39:23.523Z,1015.48
2018-07-08T01:40:23.516Z,1015.48
2018-07-08T01:41:23.496Z,1015.48
2018-07-08T01:42:23.483Z,1015.49
2018-07-08T01:43:23.469Z,1015.48
2018-07-08T01:44:23.549Z,1015.5
2018-07-08T01:45:23.443Z,1015.52
2018-07-08T01:46:23.632Z,1015.5
2018-07-08T01:47:23.415Z,1015.53
2018-07-08T01:48:23.405Z,1015.48
2018-07-08T01:49:23.389Z,1015.48
2018-07-08T01:50:23.376Z,1015.53
2018-07-08T01:51:23.361Z,1015.48
2018-07-08T01:52:23.350Z,1015.46
2018-07-08T01:53:23.335Z,1015.48
2018-07-08T01:54:23.320Z,1015.49
2018-07-08T01:55:23.311Z,1015.49
2018-07-08T01:56:23.300Z,1015.5
2018-07-08T01:57:23.279Z,1015.51
2018-07-08T01:58:23.266Z,1015.5
2018-07-08T01:59:23.303Z,1015.46
2018-07-08T02:00:23.239Z,1015.47
2018-07-08T02:01:23.225Z,1015.47
2018-07-08T02:02:23.221Z,1015.47
2018-07-08T02:03:23.196Z,1015.51
2018-07-08T02:04:23.184Z,1015.52
2018-07-08T02:05:23.177Z,1015.52
2018-07-08T02:06:23.158Z,1015.53
2018-07-08T02:07:23.143Z,1015.53
2018-07-08T02:08:23.129Z,1015.54
2018-07-08T02:09:23.117Z,1015.52
2018-07-08T02:10:23.101Z,1015.51
2018-07-08T02:11:23.095Z,1015.53
2018-07-08T02:12:23.080Z,1015.52
2018-07-08T02:13:23.062Z,1015.51
2018-07-08T02:14:23.047Z,1015.51
2018-07-08T02:15:23.034Z,1015.56
2018-07-08T02:16:23.022Z,1015.55
2018-07-08T02:17:23.006Z,1015.56
2018-07-08T02:18:22.993Z,1015.55
2018-07-08T02:19:22.983Z,1015.56
2018-07-08T02:20:22.968Z,1015.56
2018-07-08T02:21:22.952Z,1015.57
2018-07-08T02:22:22.939Z,1015.58
2018-07-08T02:23:22.970Z,1015.58
2018-07-08T02:24:22.909Z,1015.57
2018-07-08T02:25:22.895Z,1015.6
2018-07-08T02:26:22.886Z,1015.56
2018-07-08T02:27:22.867Z,1015.6
2018-07-08T02:28:22.857Z,1015.59
2018-07-08T02:29:22.843Z,1015.59
2018-07-08T02:30:22.827Z,1015.61
2018-07-08T02:31:22.818Z,1015.62
2018-07-08T02:32:22.798Z,1015.61
2018-07-08T02:33:22.786Z,1015.6
2018-07-08T02:34:22.778Z,1015.61
2018-07-08T02:35:22.756Z,1015.6
2018-07-08T02:36:22.740Z,1015.6
2018-07-08T02:37:22.727Z,1015.58
2018-07-08T02:38:22.712Z,1015.57
2018-07-08T02:39:22.702Z,1015.59
2018-07-08T02:40:22.688Z,1015.6
2018-07-08T02:41:22.672Z,1015.66
2018-07-08T02:42:22.661Z,1015.68
2018-07-08T02:43:22.642Z,1015.67
2018-07-08T02:44:22.630Z,1015.71
2018-07-08T02:45:22.619Z,1015.72
2018-07-08T02:46:22.600Z,1015.71
2018-07-08T02:47:22.585Z,1015.7
2018-07-08T02:48:22.573Z,1015.69
2018-07-08T02:49:22.559Z,1015.69
2018-07-08T02:50:22.543Z,1015.69
2018-07-08T02:51:22.530Z,1015.68
2018-07-08T02:52:22.516Z,1015.68
2018-07-08T02:53:22.502Z,1015.67
2018-07-08T02:54:22.507Z,1015.67
2018-07-08T02:55:22.474Z,1015.71
2018-07-08T02:56:22.460Z,1015.72
2018-07-08T02:57:22.445Z,1015.75
2018-07-08T02:58:22.431Z,1015.78
2018-07-08T02:59:22.416Z,1015.76
2018-07-08T03:00:22.408Z,1015.78
2018-07-08T03:01:22.394Z,1015.79
2018-07-08T03:02:22.374Z,1015.79
2018-07-08T03:03:22.358Z,1015.76
2018-07-08T03:04:22.343Z,1015.78
2018-07-08T03:05:22.344Z,1015.79
2018-07-08T03:06:22.314Z,1015.76
2018-07-08T03:07:22.303Z,1015.74
2018-07-08T03:08:22.288Z,1015.77
2018-07-08T03:09:22.273Z,1015.76
2018-07-08T03:10:22.258Z,1015.79
2018-07-08T03:11:22.245Z,1015.81
2018-07-08T03:12:22.229Z,1015.79
2018-07-08T03:13:22.215Z,1015.82
2018-07-08T03:14:22.201Z,1015.8
2018-07-08T03:15:22.186Z,1015.82
2018-07-08T03:16:22.173Z,1015.81
2018-07-08T03:17:22.158Z,1015.8
2018-07-08T03:18:22.144Z,1015.81
2018-07-08T03:19:22.129Z,1015.81
2018-07-08T03:20:22.115Z,1015.8
2018-07-08T03:21:22.100Z,1015.78
2018-07-08T03:22:22.086Z,1015.83
2018-07-08T03:23:22.070Z,1015.83
2018-07-08T03:24:22.064Z,1015.86
2018-07-08T03:25:22.043Z,1015.87
2018-07-08T03:26:22.027Z,1015.87
2018-07-08T03:27:22.012Z,1015.88
2018-07-08T03:28:21.997Z,1015.85
2018-07-08T03:29:21.985Z,1015.86
2018-07-08T03:30:21.970Z,1015.85
2018-07-08T03:31:21.955Z,1015.88
2018-07-08T03:32:21.940Z,1015.79
2018-07-08T03:33:21.967Z,1015.78
2018-07-08T03:34:21.912Z,1015.78
2018-07-08T03:35:21.900Z,1015.77
2018-07-08T03:36:21.886Z,1015.78
2018-07-08T03:37:21.872Z,1015.78
2018-07-08T03:38:21.852Z,1015.82
2018-07-08T03:39:21.840Z,1015.81
2018-07-08T03:40:21.824Z,1015.77
2018-07-08T03:41:21.809Z,1015.84
2018-07-08T03:42:21.794Z,1015.83
2018-07-08T03:43:21.783Z,1015.85
2018-07-08T03:44:21.768Z,1015.85
2018-07-08T03:45:21.752Z,1015.85
2018-07-08T03:46:21.939Z,1015.86
2018-07-08T03:47:21.723Z,1015.89
2018-07-08T03:48:21.712Z,1015.91
2018-07-08T03:49:21.694Z,1015.94
2018-07-08T03:50:21.679Z,1015.9
2018-07-08T03:51:21.665Z,1015.88
2018-07-08T03:52:21.651Z,1015.86
2018-07-08T03:53:21.636Z,1015.89
2018-07-08T03:54:21.622Z,1015.89
2018-07-08T03:55:21.607Z,1015.87
2018-07-08T03:56:21.591Z,1015.89
2018-07-08T03:57:21.578Z,1015.92
2018-07-08T03:58:21.564Z,1015.87
2018-07-08T03:59:21.550Z,1015.87
2018-07-08T04:00:21.534Z,1015.84
2018-07-08T04:01:21.519Z,1015.86
2018-07-08T04:02:21.506Z,1015.88
2018-07-08T04:03:21.489Z,1015.91
2018-07-08T04:04:21.477Z,1015.91
2018-07-08T04:05:21.463Z,1015.89
2018-07-08T04:06:21.447Z,1015.86
2018-07-08T04:07:21.433Z,1015.89
2018-07-08T04:08:21.419Z,1015.86
2018-07-08T04:09:21.405Z,1015.88
2018-07-08T04:10:21.390Z,1015.87
2018-07-08T04:11:21.374Z,1015.87
2018-07-08T04:12:21.360Z,1015.92
2018-07-08T04:13:21.348Z,1015.91
2018-07-08T04:14:21.378Z,1015.89
2018-07-08T04:15:21.431Z,1015.94
2018-07-08T04:16:21.301Z,1015.95
2018-07-08T04:17:21.291Z,1015.95
2018-07-08T04:18:21.272Z,1015.96
2018-07-08T04:19:21.258Z,1015.95
2018-07-08T04:20:21.244Z,1015.97
2018-07-08T04:21:21.232Z,1016
2018-07-08T04:22:21.215Z,1015.97
2018-07-08T04:23:21.201Z,1015.94
2018-07-08T04:24:21.185Z,1015.88
2018-07-08T04:25:21.173Z,1015.92
2018-07-08T04:26:21.156Z,1015.91
2018-07-08T04:27:21.145Z,1015.92
2018-07-08T04:28:21.133Z,1015.91
2018-07-08T04:29:21.114Z,1015.94
2018-07-08T04:30:21.110Z,1015.94
2018-07-08T04:31:21.083Z,1015.93
2018-07-08T04:32:21.071Z,1015.95
2018-07-08T04:33:21.055Z,1015.97
2018-07-08T04:34:21.043Z,1015.99
2018-07-08T04:35:21.027Z,1016
2018-07-08T04:36:21.015Z,1016.05
2018-07-08T04:37:20.998Z,1016.03
2018-07-08T04:38:20.987Z,1016.03
2018-07-08T04:39:20.969Z,1016.07
2018-07-08T04:40:20.955Z,1016.05
2018-07-08T04:41:20.939Z,1016.09
2018-07-08T04:42:20.924Z,1016.08
2018-07-08T04:43:20.919Z,1016.08
2018-07-08T04:44:20.896Z,1016.06
2018-07-08T04:45:20.883Z,1016.05
2018-07-08T04:46:20.868Z,1016.04
2018-07-08T04:47:20.853Z,1016.06
2018-07-08T04:48:20.843Z,1016.04
2018-07-08T04:49:21.012Z,1016.04
2018-07-08T04:50:20.814Z,1016.06
2018-07-08T04:51:20.805Z,1016.04
2018-07-08T04:52:20.784Z,1016.02
2018-07-08T04:53:20.768Z,1016.07
2018-07-08T04:54:20.754Z,1016.05
2018-07-08T04:55:20.741Z,1016.04
2018-07-08T04:56:20.731Z,1016.13
2018-07-08T04:57:20.713Z,1016.12
2018-07-08T04:58:20.698Z,1016.13
2018-07-08T04:59:20.684Z,1016.12
2018-07-08T05:00:20.671Z,1016.12
2018-07-08T05:01:20.658Z,1016.12
2018-07-08T05:02:20.647Z,1016.12
2018-07-08T05:03:20.629Z,1016.09
2018-07-08T05:04:20.616Z,1016.11
2018-07-08T05:05:20.601Z,1016.06
2018-07-08T05:06:20.590Z,1016.15
2018-07-08T05:07:20.574Z,1016.12
2018-07-08T05:08:20.560Z,1016.1
2018-07-08T05:09:20.544Z,1016.15
2018-07-08T05:10:20.531Z,1016.15
2018-07-08T05:11:20.517Z,1016.15
2018-07-08T05:12:20.507Z,1016.17
2018-07-08T05:13:20.495Z,1016.21
2018-07-08T05:14:20.489Z,1016.21
2018-07-08T05:15:20.466Z,1016.21
2018-07-08T05:16:20.448Z,1016.23
2018-07-08T05:17:20.434Z,1016.26
2018-07-08T05:18:20.422Z,1016.25
2018-07-08T05:19:20.406Z,1016.24
2018-07-08T05:20:20.455Z,1016.27
2018-07-08T05:21:20.379Z,1016.29
2018-07-08T05:22:20.365Z,1016.31
2018-07-08T05:23:20.354Z,1016.29
2018-07-08T05:24:20.337Z,1016.28
2018-07-08T05:25:20.327Z,1016.32
2018-07-08T05:26:20.309Z,1016.3
2018-07-08T05:27:20.298Z,1016.3
2018-07-08T05:28:20.283Z,1016.33
2018-07-08T05:29:20.271Z,1016.31
2018-07-08T05:30:20.266Z,1016.36
2018-07-08T05:31:20.243Z,1016.41
2018-07-08T05:32:20.230Z,1016.42
2018-07-08T05:33:20.225Z,1016.42
2018-07-08T05:34:20.205Z,1016.4
2018-07-08T05:35:20.196Z,1016.42
2018-07-08T05:36:20.176Z,1016.44
2018-07-08T05:37:20.164Z,1016.47
2018-07-08T05:38:20.150Z,1016.43
2018-07-08T05:39:20.135Z,1016.42
2018-07-08T05:40:20.123Z,1016.46
2018-07-08T05:41:20.110Z,1016.43
2018-07-08T05:42:20.100Z,1016.4
2018-07-08T05:43:20.083Z,1016.4
2018-07-08T05:44:20.070Z,1016.43
2018-07-08T05:45:20.059Z,1016.38
2018-07-08T05:46:20.246Z,1016.4
2018-07-08T05:47:20.030Z,1016.37
2018-07-08T05:48:20.017Z,1016.45
2018-07-08T05:49:20.005Z,1016.44
2018-07-08T05:50:20.229Z,1016.46
2018-07-08T05:51:19.977Z,1016.45
2018-07-08T05:52:19.974Z,1016.45
2018-07-08T05:53:19.950Z,1016.46
2018-07-08T05:54:19.940Z,1016.48
2018-07-08T05:55:19.926Z,1016.47
2018-07-08T05:56:19.925Z,1016.46
2018-07-08T05:57:19.904Z,1016.51
2018-07-08T05:58:19.884Z,1016.46
2018-07-08T05:59:19.874Z,1016.47
2018-07-08T06:00:19.858Z,1016.48
2018-07-08T06:01:19.852Z,1016.5
2018-07-08T06:02:19.834Z,1016.49
2018-07-08T06:03:19.820Z,1016.51
2018-07-08T06:04:19.807Z,1016.5
2018-07-08T06:05:19.797Z,1016.51
2018-07-08T06:06:19.784Z,1016.55
2018-07-08T06:07:19.769Z,1016.55
2018-07-08T06:08:19.755Z,1016.51
2018-07-08T06:09:19.743Z,1016.53
2018-07-08T06:10:19.730Z,1016.49
2018-07-08T06:11:19.717Z,1016.5
2018-07-08T06:12:19.703Z,1016.46
2018-07-08T06:13:19.692Z,1016.5
2018-07-08T06:14:19.678Z,1016.46
2018-07-08T06:15:19.687Z,1016.47
2018-07-08T06:16:19.654Z,1016.45
2018-07-08T06:17:19.643Z,1016.45
2018-07-08T06:18:19.628Z,1016.41
2018-07-08T06:19:19.638Z,1016.44
2018-07-08T06:20:19.605Z,1016.46
2018-07-08T06:21:19.593Z,1016.5
2018-07-08T06:22:19.578Z,1016.45
2018-07-08T06:23:19.566Z,1016.52
2018-07-08T06:24:19.556Z,1016.53
2018-07-08T06:25:19.544Z,1016.6
2018-07-08T06:26:19.530Z,1016.53
2018-07-08T06:27:19.518Z,1016.51
2018-07-08T06:28:19.506Z,1016.42
2018-07-08T06:29:19.495Z,1016.41
2018-07-08T06:30:19.482Z,1016.43
2018-07-08T06:31:19.471Z,1016.42
2018-07-08T06:32:19.460Z,1016.45
2018-07-08T06:33:19.448Z,1016.44
2018-07-08T06:34:19.437Z,1016.45
2018-07-08T06:35:19.423Z,1016.45
2018-07-08T06:36:19.412Z,1016.46
2018-07-08T06:37:19.403Z,1016.46
2018-07-08T06:38:19.391Z,1016.41
2018-07-08T06:39:19.394Z,1016.43
2018-07-08T06:40:19.409Z,1016.38
2018-07-08T06:41:19.354Z,1016.43
2018-07-08T06:42:19.343Z,1016.43
2018-07-08T06:43:19.331Z,1016.43
2018-07-08T06:44:19.320Z,1016.42
2018-07-08T06:45:19.308Z,1016.38
2018-07-08T06:46:19.299Z,1016.36
2018-07-08T06:47:19.287Z,1016.32
2018-07-08T06:48:19.272Z,1016.36
2018-07-08T06:49:19.266Z,1016.33
2018-07-08T06:50:19.256Z,1016.33
2018-07-08T06:51:19.239Z,1016.32
2018-07-08T06:52:19.231Z,1016.34
2018-07-08T06:53:19.219Z,1016.37
2018-07-08T06:54:19.211Z,1016.61
2018-07-08T06:55:19.193Z,1016.31
2018-07-08T06:56:19.186Z,1016.31
2018-07-08T06:57:19.171Z,1016.54
2018-07-08T06:58:19.162Z,1016.44
2018-07-08T06:59:19.150Z,1016.33
2018-07-08T07:00:19.141Z,1016.29
2018-07-08T07:01:19.133Z,1016.31
2018-07-08T07:02:19.122Z,1016.29
2018-07-08T07:03:19.109Z,1016.3
2018-07-08T07:04:19.101Z,1016.3
2018-07-08T07:05:19.091Z,1016.29
2018-07-08T07:06:19.080Z,1016.34
2018-07-08T07:07:19.072Z,1016.33
2018-07-08T07:08:19.064Z,1016.36
2018-07-08T07:09:19.051Z,1016.48
2018-07-08T07:10:19.041Z,1016.46
2018-07-08T07:11:19.032Z,1016.48
2018-07-08T07:12:19.021Z,1016.58
2018-07-08T07:13:19.010Z,1016.6
2018-07-08T07:14:19.008Z,1016.57
2018-07-08T07:15:18.992Z,1016.62
2018-07-08T07:16:18.985Z,1016.66
2018-07-08T07:17:18.985Z,1016.68
2018-07-08T07:18:18.966Z,1016.71
2018-07-08T07:19:18.958Z,1016.72
2018-07-08T07:20:18.953Z,1016.73
2018-07-08T07:21:18.944Z,1016.73
2018-07-08T07:22:18.938Z,1016.76
2018-07-08T07:23:18.930Z,1016.78
2018-07-08T07:24:18.920Z,1016.77
2018-07-08T07:25:18.916Z,1016.79
2018-07-08T07:26:18.908Z,1016.79
2018-07-08T07:27:18.906Z,1016.78
2018-07-08T07:28:18.904Z,1016.78
2018-07-08T07:29:18.893Z,1016.75
2018-07-08T07:30:18.889Z,1016.76
2018-07-08T07:31:18.883Z,1016.77
2018-07-08T07:32:18.877Z,1016.71
2018-07-08T07:33:18.874Z,1016.69
2018-07-08T07:34:18.871Z,1016.75
2018-07-08T07:35:18.863Z,1016.71
2018-07-08T07:36:18.860Z,1016.7
2018-07-08T07:37:18.883Z,1016.6
2018-07-08T07:38:18.859Z,1016.62
2018-07-08T07:39:18.848Z,1016.64
2018-07-08T07:40:18.844Z,1016.62
2018-07-08T07:41:18.842Z,1016.66
2018-07-08T07:42:18.839Z,1016.7
2018-07-08T07:43:18.835Z,1016.71
2018-07-08T07:44:18.832Z,1016.75
2018-07-08T07:45:18.889Z,1016.78
2018-07-08T07:46:18.828Z,1016.76
2018-07-08T07:47:18.823Z,1016.73
2018-07-08T07:48:18.823Z,1016.78
2018-07-08T07:49:18.857Z,1016.8
2018-07-08T07:50:18.821Z,1016.76
2018-07-08T07:51:18.860Z,1016.79
2018-07-08T07:52:18.812Z,1016.74
2018-07-08T07:53:18.811Z,1016.75
2018-07-08T07:54:18.809Z,1016.8
2018-07-08T07:55:18.813Z,1016.8
2018-07-08T07:56:18.811Z,1016.78
2018-07-08T07:57:18.803Z,1016.79
2018-07-08T07:58:18.805Z,1016.77
2018-07-08T07:59:18.805Z,1016.79
2018-07-08T08:00:18.803Z,1016.78
2018-07-08T08:01:18.803Z,1016.78
2018-07-08T08:02:18.798Z,1016.8
2018-07-08T08:03:18.798Z,1016.78
2018-07-08T08:04:18.799Z,1016.8
2018-07-08T08:05:18.797Z,1016.87
2018-07-08T08:06:18.797Z,1016.85
2018-07-08T08:07:18.796Z,1016.85
2018-07-08T08:08:18.795Z,1016.81
2018-07-08T08:09:18.797Z,1016.81
2018-07-08T08:10:18.799Z,1016.84
2018-07-08T08:11:18.798Z,1016.79
2018-07-08T08:12:18.795Z,1016.83
2018-07-08T08:13:18.795Z,1016.85
2018-07-08T08:14:18.795Z,1016.82
2018-07-08T08:15:18.796Z,1016.85
2018-07-08T08:16:18.799Z,1016.85
2018-07-08T08:17:18.798Z,1016.83
2018-07-08T08:18:18.799Z,1016.86
2018-07-08T08:19:18.798Z,1016.85
2018-07-08T08:20:18.799Z,1016.9
2018-07-08T08:21:18.798Z,1016.89
2018-07-08T08:22:18.803Z,1016.9
2018-07-08T08:23:18.800Z,1016.89
2018-07-08T08:24:18.805Z,1016.88
2018-07-08T08:25:18.805Z,1016.88
2018-07-08T08:26:18.867Z,1016.84
2018-07-08T08:27:18.807Z,1016.86
2018-07-08T08:28:18.808Z,1016.82
2018-07-08T08:29:18.808Z,1016.84
2018-07-08T08:30:18.812Z,1016.92
2018-07-08T08:31:18.810Z,1016.87
2018-07-08T08:32:18.812Z,1016.65
2018-07-08T08:33:18.812Z,1016.76
2018-07-08T08:34:18.815Z,1016.87
2018-07-08T08:35:18.818Z,1016.69
2018-07-08T08:36:18.821Z,1016.95
2018-07-08T08:37:18.813Z,1016.88
2018-07-08T08:38:18.903Z,1016.55
2018-07-08T08:39:18.813Z,1016.74
2018-07-08T08:40:18.833Z,1016.68
2018-07-08T08:41:18.812Z,1016.48
2018-07-08T08:42:18.811Z,1016.49
2018-07-08T08:43:18.811Z,1016.5
2018-07-08T08:44:18.812Z,1016.52
2018-07-08T08:45:18.808Z,1016.52
2018-07-08T08:46:18.809Z,1016.54
2018-07-08T08:47:18.804Z,1016.55
2018-07-08T08:48:18.811Z,1016.5
2018-07-08T08:49:18.797Z,1016.46
2018-07-08T08:50:18.795Z,1016.48
2018-07-08T08:51:18.803Z,1016.53
2018-07-08T08:52:18.809Z,1016.5
2018-07-08T08:53:18.785Z,1016.49
2018-07-08T08:54:18.782Z,1016.46
2018-07-08T08:55:18.781Z,1016.6
2018-07-08T08:56:18.774Z,1017.03
2018-07-08T08:57:18.770Z,1016.93
2018-07-08T08:58:18.811Z,1017.02
2018-07-08T08:59:18.765Z,1017.05
2018-07-08T09:00:18.760Z,1017.19
2018-07-08T09:01:18.756Z,1017.16
2018-07-08T09:02:18.752Z,1017.17
2018-07-08T09:03:18.747Z,1017.16
2018-07-08T09:04:18.750Z,1017.11
2018-07-08T09:05:18.745Z,1017.15
2018-07-08T09:06:18.741Z,1017.15
2018-07-08T09:07:18.741Z,1017.24
2018-07-08T09:08:18.739Z,1017.19
2018-07-08T09:09:18.742Z,1017.22
2018-07-08T09:10:18.735Z,1017.25
2018-07-08T09:11:18.736Z,1017.09
2018-07-08T09:12:18.736Z,1017.28
2018-07-08T09:13:18.735Z,1017.02
2018-07-08T09:14:18.737Z,1016.82
2018-07-08T09:15:18.737Z,1016.69
2018-07-08T09:16:18.737Z,1016.79
2018-07-08T09:17:18.739Z,1016.77
2018-07-08T09:18:18.735Z,1016.77
2018-07-08T09:19:18.735Z,1016.88
2018-07-08T09:20:18.735Z,1016.72
2018-07-08T09:21:18.738Z,1017.16
2018-07-08T09:22:18.734Z,1016.59
2018-07-08T09:23:18.732Z,1016.61
2018-07-08T09:24:18.733Z,1016.77
2018-07-08T09:25:18.732Z,1016.84
2018-07-08T09:26:18.728Z,1016.9
2018-07-08T09:27:18.727Z,1016.64
2018-07-08T09:28:18.730Z,1016.66
2018-07-08T09:29:18.741Z,1016.61
2018-07-08T09:30:18.723Z,1016.67
2018-07-08T09:31:18.721Z,1016.62
2018-07-08T09:32:18.721Z,1016.73
2018-07-08T09:33:18.720Z,1016.78
2018-07-08T09:34:18.717Z,1016.68
2018-07-08T09:35:18.715Z,1017.06
2018-07-08T09:36:18.714Z,1017.13
2018-07-08T09:37:18.717Z,1016.88
2018-07-08T09:38:18.710Z,1017.1
2018-07-08T09:39:18.889Z,1016.67
2018-07-08T09:40:18.714Z,1016.91
2018-07-08T09:41:18.710Z,1016.7
2018-07-08T09:42:18.708Z,1016.64
2018-07-08T09:43:18.706Z,1016.72
2018-07-08T09:44:18.704Z,1016.61
2018-07-08T09:45:18.706Z,1016.58
2018-07-08T09:46:18.705Z,1016.58
2018-07-08T09:47:18.698Z,1016.71
2018-07-08T09:48:18.697Z,1016.7
2018-07-08T09:49:18.697Z,1016.62
2018-07-08T09:50:18.696Z,1016.57
2018-07-08T09:51:18.690Z,1016.65
2018-07-08T09:52:18.687Z,1016.63
2018-07-08T09:53:18.686Z,1016.57
2018-07-08T09:54:18.681Z,1016.58
2018-07-08T09:55:18.678Z,1016.56
2018-07-08T09:56:18.675Z,1016.53
2018-07-08T09:57:18.671Z,1016.5
2018-07-08T09:58:18.665Z,1016.51
2018-07-08T09:59:18.663Z,1016.47
2018-07-08T10:00:18.659Z,1016.49
2018-07-08T10:01:18.653Z,1016.44
2018-07-08T10:02:18.649Z,1016.4
2018-07-08T10:03:18.645Z,1016.45
2018-07-08T10:04:18.641Z,1016.42
2018-07-08T10:05:18.639Z,1016.51
2018-07-08T10:06:18.633Z,1016.55
2018-07-08T10:07:18.626Z,1016.49
2018-07-08T10:08:18.624Z,1016.43
2018-07-08T10:09:18.617Z,1016.42
2018-07-08T10:10:18.614Z,1016.41
2018-07-08T10:11:18.607Z,1016.36
2018-07-08T10:12:18.601Z,1016.54
2018-07-08T10:13:18.597Z,1016.4
2018-07-08T10:14:18.594Z,1016.36
2018-07-08T10:15:18.587Z,1016.42
2018-07-08T10:16:18.623Z,1016.47
2018-07-08T10:17:18.619Z,1016.43
2018-07-08T10:18:18.571Z,1016.4
2018-07-08T10:19:18.566Z,1016.55
2018-07-08T10:20:18.564Z,1016.58
2018-07-08T10:21:18.572Z,1016.48
2018-07-08T10:22:18.549Z,1016.72
2018-07-08T10:23:18.545Z,1016.78
2018-07-08T10:24:18.541Z,1016.87
2018-07-08T10:25:18.596Z,1016.94
2018-07-08T10:26:18.534Z,1016.83
2018-07-08T10:27:18.527Z,1016.83
2018-07-08T10:28:18.524Z,1016.87
2018-07-08T10:29:18.522Z,1016.85
2018-07-08T10:30:18.525Z,1016.93
2018-07-08T10:31:18.518Z,1016.89
2018-07-08T10:32:18.526Z,1016.89
2018-07-08T10:33:18.513Z,1016.91
2018-07-08T10:34:18.515Z,1016.88
2018-07-08T10:35:18.517Z,1016.9
2018-07-08T10:36:18.511Z,1016.88
2018-07-08T10:37:18.516Z,1016.84
2018-07-08T10:38:18.580Z,1016.86
2018-07-08T10:39:18.516Z,1016.77
2018-07-08T10:40:18.519Z,1016.77
2018-07-08T10:41:18.518Z,1016.77
2018-07-08T10:42:18.519Z,1016.8
2018-07-08T10:43:18.547Z,1016.79
2018-07-08T10:44:18.524Z,1016.77
2018-07-08T10:45:18.529Z,1016.8
2018-07-08T10:46:18.531Z,1016.76
2018-07-08T10:47:18.536Z,1016.7
2018-07-08T10:48:18.539Z,1016.69
2018-07-08T10:49:18.543Z,1016.64
2018-07-08T10:50:18.549Z,1016.56
2018-07-08T10:51:18.552Z,1016.6
2018-07-08T10:52:18.555Z,1016.52
2018-07-08T10:53:18.563Z,1016.48
2018-07-08T10:54:18.566Z,1016.47
2018-07-08T10:55:18.610Z,1016.47
2018-07-08T10:56:18.577Z,1016.47
2018-07-08T10:57:18.581Z,1016.46
2018-07-08T10:58:18.593Z,1016.42
2018-07-08T10:59:18.594Z,1016.44
2018-07-08T11:00:18.597Z,1016.44
2018-07-08T11:01:18.604Z,1016.4
2018-07-08T11:02:18.609Z,1016.41
2018-07-08T11:03:18.613Z,1016.4
2018-07-08T11:04:18.619Z,1016.41
2018-07-08T11:05:18.625Z,1016.4
2018-07-08T11:06:18.632Z,1016.46
2018-07-08T11:07:18.635Z,1016.38
2018-07-08T11:08:18.644Z,1016.36
2018-07-08T11:09:18.656Z,1016.36
2018-07-08T11:10:18.655Z,1016.37
2018-07-08T11:11:18.661Z,1016.41
2018-07-08T11:12:18.670Z,1016.4
2018-07-08T11:13:18.674Z,1016.38
2018-07-08T11:14:18.684Z,1016.38
2018-07-08T11:15:18.686Z,1016.38
2018-07-08T11:16:18.693Z,1016.36
2018-07-08T11:17:18.700Z,1016.36
2018-07-08T11:18:18.710Z,1016.42
2018-07-08T11:19:18.718Z,1016.36
2018-07-08T11:20:18.719Z,1016.32
2018-07-08T11:21:18.726Z,1016.33
2018-07-08T11:22:18.735Z,1016.28
2018-07-08T11:23:18.742Z,1016.26
2018-07-08T11:24:18.751Z,1016.24
2018-07-08T11:25:18.753Z,1016.23
2018-07-08T11:26:18.760Z,1016.25
2018-07-08T11:27:18.768Z,1016.27
2018-07-08T11:28:18.776Z,1016.25
2018-07-08T11:29:18.782Z,1016.21
2018-07-08T11:30:18.791Z,1016.19
2018-07-08T11:31:18.795Z,1016.26
2018-07-08T11:32:18.804Z,1016.23
2018-07-08T11:33:18.810Z,1016.24
2018-07-08T11:34:18.819Z,1016.23
2018-07-08T11:35:18.827Z,1016.25
2018-07-08T11:36:18.836Z,1016.22
2018-07-08T11:37:18.844Z,1016.27
2018-07-08T11:38:18.847Z,1016.26
2018-07-08T11:39:18.855Z,1016.25
2018-07-08T11:40:18.860Z,1016.32
2018-07-08T11:41:18.868Z,1016.26
2018-07-08T11:42:18.878Z,1016.21
2018-07-08T11:43:18.884Z,1016.23
2018-07-08T11:44:18.891Z,1016.25
2018-07-08T11:45:18.905Z,1016.18
2018-07-08T11:46:18.908Z,1016.19
2018-07-08T11:47:19.122Z,1016.17
2018-07-08T11:48:18.921Z,1016.19
2018-07-08T11:49:18.929Z,1016.14
2018-07-08T11:50:18.936Z,1016.13
2018-07-08T11:51:18.948Z,1016.12
2018-07-08T11:52:18.952Z,1016.14
2018-07-08T11:53:18.959Z,1016.09
2018-07-08T11:54:18.965Z,1016.01
2018-07-08T11:55:19.008Z,1016.05
2018-07-08T11:56:18.981Z,1015.99
2018-07-08T11:57:18.990Z,1016
2018-07-08T11:58:18.997Z,1016
2018-07-08T11:59:19.007Z,1016.01
2018-07-08T12:00:19.012Z,1016.02
2018-07-08T12:01:19.020Z,1016.05
2018-07-08T12:02:19.035Z,1016.07
2018-07-08T12:03:19.040Z,1016.07
2018-07-08T12:04:19.043Z,1016.02
2018-07-08T12:05:19.052Z,1015.97
2018-07-08T12:06:19.130Z,1015.98
2018-07-08T12:07:19.067Z,1015.99
2018-07-08T12:08:19.075Z,1016.01